sensor_id;sensor_type;location;lat;lon;timestamp;P1;durP1;ratioP1;P2;durP2;ratioP2
63784;SDS011;49927;48.146;11.420;2022-08-06T00:02:14;8.23;;;4.38;;
63784;SDS011;49927;48.146;11.420;2022-08-06T00:04:41;7.43;;;4.30;;
63784;SDS011;49927;48.146;11.420;2022-08-06T00:07:07;5.93;;;4.13;;
63784;SDS011;49927;48.146;11.420;2022-08-06T00:09:32;7.50;;;5.00;;
63784;SDS011;49927;48.146;11.420;2022-08-06T00:11:58;5.13;;;3.65;;
63784;SDS011;49927;48.146;11.420;2022-08-06T00:14:23;6.15;;;5.00;;
63784;SDS011;49927;48.146;11.420;2022-08-06T00:16:49;4.85;;;4.32;;
63784;SDS011;49927;48.146;11.420;2022-08-06T00:19:14;7.80;;;5.05;;
63784;SDS011;49927;48.146;11.420;2022-08-06T00:21:41;7.32;;;4.60;;
63784;SDS011;49927;48.146;11.420;2022-08-06T00:24:07;8.18;;;4.70;;
63784;SDS011;49927;48.146;11.420;2022-08-06T00:26:32;5.68;;;3.75;;
63784;SDS011;49927;48.146;11.420;2022-08-06T00:28:58;6.00;;;4.95;;
63784;SDS011;49927;48.146;11.420;2022-08-06T00:31:23;5.65;;;4.82;;
63784;SDS011;49927;48.146;11.420;2022-08-06T00:33:49;7.00;;;4.80;;
63784;SDS011;49927;48.146;11.420;2022-08-06T00:36:14;8.43;;;4.50;;
63784;SDS011;49927;48.146;11.420;2022-08-06T00:38:41;7.53;;;4.80;;
63784;SDS011;49927;48.146;11.420;2022-08-06T00:41:07;8.32;;;4.55;;
63784;SDS011;49927;48.146;11.420;2022-08-06T00:43:33;7.22;;;4.35;;
63784;SDS011;49927;48.146;11.420;2022-08-06T00:45:58;5.13;;;4.45;;
63784;SDS011;49927;48.146;11.420;2022-08-06T00:48:24;6.90;;;4.30;;
63784;SDS011;49927;48.146;11.420;2022-08-06T00:50:49;5.90;;;3.85;;
63784;SDS011;49927;48.146;11.420;2022-08-06T00:53:15;9.85;;;3.85;;
63784;SDS011;49927;48.146;11.420;2022-08-06T00:55:42;5.88;;;3.67;;
63784;SDS011;49927;48.146;11.420;2022-08-06T00:58:07;6.32;;;3.30;;
63784;SDS011;49927;48.146;11.420;2022-08-06T01:00:33;3.05;;;2.75;;
63784;SDS011;49927;48.146;11.420;2022-08-06T01:02:58;4.93;;;3.42;;
63784;SDS011;49927;48.146;11.420;2022-08-06T01:05:24;3.47;;;3.13;;
63784;SDS011;49927;48.146;11.420;2022-08-06T01:07:49;4.63;;;2.97;;
63784;SDS011;49927;48.146;11.420;2022-08-06T01:10:15;5.25;;;2.90;;
63784;SDS011;49927;48.146;11.420;2022-08-06T01:12:42;5.78;;;2.80;;
63784;SDS011;49927;48.146;11.420;2022-08-06T01:15:08;3.70;;;3.25;;
63784;SDS011;49927;48.146;11.420;2022-08-06T01:17:34;4.22;;;2.90;;
63784;SDS011;49927;48.146;11.420;2022-08-06T01:20:06;2.90;;;2.70;;
63784;SDS011;49927;48.146;11.420;2022-08-06T01:22:42;4.22;;;3.65;;
63784;SDS011;49927;48.146;11.420;2022-08-06T01:25:22;5.50;;;3.25;;
63784;SDS011;49927;48.146;11.420;2022-08-06T01:27:59;3.92;;;3.13;;
63784;SDS011;49927;48.146;11.420;2022-08-06T01:30:28;3.90;;;3.47;;
63784;SDS011;49927;48.146;11.420;2022-08-06T01:32:56;4.10;;;3.50;;
63784;SDS011;49927;48.146;11.420;2022-08-06T01:35:27;5.65;;;3.83;;
63784;SDS011;49927;48.146;11.420;2022-08-06T01:37:57;3.85;;;3.30;;
63784;SDS011;49927;48.146;11.420;2022-08-06T01:40:25;3.85;;;3.35;;
63784;SDS011;49927;48.146;11.420;2022-08-06T01:42:52;4.22;;;3.65;;
63784;SDS011;49927;48.146;11.420;2022-08-06T01:45:21;5.15;;;3.67;;
63784;SDS011;49927;48.146;11.420;2022-08-06T01:47:50;4.40;;;3.40;;
63784;SDS011;49927;48.146;11.420;2022-08-06T01:50:18;4.45;;;3.35;;
63784;SDS011;49927;48.146;11.420;2022-08-06T01:52:45;4.25;;;3.53;;
63784;SDS011;49927;48.146;11.420;2022-08-06T01:55:13;3.70;;;3.35;;
63784;SDS011;49927;48.146;11.420;2022-08-06T01:57:40;5.72;;;3.75;;
63784;SDS011;49927;48.146;11.420;2022-08-06T02:00:10;6.82;;;3.88;;
63784;SDS011;49927;48.146;11.420;2022-08-06T02:02:38;4.18;;;3.53;;
63784;SDS011;49927;48.146;11.420;2022-08-06T02:05:05;5.38;;;3.33;;
63784;SDS011;49927;48.146;11.420;2022-08-06T02:07:32;6.10;;;3.22;;
63784;SDS011;49927;48.146;11.420;2022-08-06T02:09:59;6.22;;;3.60;;
63784;SDS011;49927;48.146;11.420;2022-08-06T02:12:25;6.28;;;4.47;;
63784;SDS011;49927;48.146;11.420;2022-08-06T02:14:52;5.13;;;3.67;;
63784;SDS011;49927;48.146;11.420;2022-08-06T02:17:19;3.78;;;2.97;;
63784;SDS011;49927;48.146;11.420;2022-08-06T02:19:49;3.67;;;3.28;;
63784;SDS011;49927;48.146;11.420;2022-08-06T02:22:15;4.45;;;3.20;;
63784;SDS011;49927;48.146;11.420;2022-08-06T02:24:41;4.15;;;3.15;;
63784;SDS011;49927;48.146;11.420;2022-08-06T02:27:07;4.95;;;3.92;;
63784;SDS011;49927;48.146;11.420;2022-08-06T02:29:33;4.70;;;3.60;;
63784;SDS011;49927;48.146;11.420;2022-08-06T02:31:59;4.20;;;3.20;;
63784;SDS011;49927;48.146;11.420;2022-08-06T02:34:25;4.65;;;3.78;;
63784;SDS011;49927;48.146;11.420;2022-08-06T02:36:55;6.25;;;3.67;;
63784;SDS011;49927;48.146;11.420;2022-08-06T02:39:24;4.75;;;3.42;;
63784;SDS011;49927;48.146;11.420;2022-08-06T02:41:54;4.10;;;3.63;;
63784;SDS011;49927;48.146;11.420;2022-08-06T02:44:24;4.85;;;3.92;;
63784;SDS011;49927;48.146;11.420;2022-08-06T02:46:55;4.63;;;3.90;;
63784;SDS011;49927;48.146;11.420;2022-08-06T02:49:25;6.38;;;4.68;;
63784;SDS011;49927;48.146;11.420;2022-08-06T02:51:53;8.00;;;5.45;;
63784;SDS011;49927;48.146;11.420;2022-08-06T02:54:21;7.68;;;5.28;;
63784;SDS011;49927;48.146;11.420;2022-08-06T02:56:49;7.13;;;5.00;;
63784;SDS011;49927;48.146;11.420;2022-08-06T02:59:20;9.02;;;5.75;;
63784;SDS011;49927;48.146;11.420;2022-08-06T03:01:50;7.10;;;6.03;;
63784;SDS011;49927;48.146;11.420;2022-08-06T03:04:18;12.63;;;6.78;;
63784;SDS011;49927;48.146;11.420;2022-08-06T03:06:45;9.68;;;7.05;;
63784;SDS011;49927;48.146;11.420;2022-08-06T03:09:12;10.15;;;6.38;;
63784;SDS011;49927;48.146;11.420;2022-08-06T03:11:40;15.07;;;7.97;;
63784;SDS011;49927;48.146;11.420;2022-08-06T03:14:06;17.02;;;10.15;;
63784;SDS011;49927;48.146;11.420;2022-08-06T03:16:34;15.93;;;10.68;;
63784;SDS011;49927;48.146;11.420;2022-08-06T03:19:00;20.02;;;12.82;;
63784;SDS011;49927;48.146;11.420;2022-08-06T03:21:26;19.77;;;11.50;;
63784;SDS011;49927;48.146;11.420;2022-08-06T03:23:52;24.63;;;12.75;;
63784;SDS011;49927;48.146;11.420;2022-08-06T03:26:20;20.60;;;13.70;;
63784;SDS011;49927;48.146;11.420;2022-08-06T03:28:45;18.55;;;12.40;;
63784;SDS011;49927;48.146;11.420;2022-08-06T03:31:11;19.08;;;11.88;;
63784;SDS011;49927;48.146;11.420;2022-08-06T03:33:37;19.75;;;12.35;;
63784;SDS011;49927;48.146;11.420;2022-08-06T03:36:03;21.85;;;12.38;;
63784;SDS011;49927;48.146;11.420;2022-08-06T03:38:30;18.70;;;11.85;;
63784;SDS011;49927;48.146;11.420;2022-08-06T03:41:00;17.98;;;11.70;;
63784;SDS011;49927;48.146;11.420;2022-08-06T03:43:27;19.13;;;10.93;;
63784;SDS011;49927;48.146;11.420;2022-08-06T03:45:53;17.98;;;11.52;;
63784;SDS011;49927;48.146;11.420;2022-08-06T03:48:23;21.05;;;10.95;;
63784;SDS011;49927;48.146;11.420;2022-08-06T03:50:50;20.17;;;11.73;;
63784;SDS011;49927;48.146;11.420;2022-08-06T03:53:17;14.32;;;10.20;;
63784;SDS011;49927;48.146;11.420;2022-08-06T03:55:46;16.35;;;10.30;;
63784;SDS011;49927;48.146;11.420;2022-08-06T03:58:12;21.80;;;12.00;;
63784;SDS011;49927;48.146;11.420;2022-08-06T04:00:47;19.50;;;11.02;;
63784;SDS011;49927;48.146;11.420;2022-08-06T04:03:15;20.80;;;12.93;;
63784;SDS011;49927;48.146;11.420;2022-08-06T04:05:42;22.80;;;14.13;;
63784;SDS011;49927;48.146;11.420;2022-08-06T04:08:08;21.92;;;14.20;;
63784;SDS011;49927;48.146;11.420;2022-08-06T04:10:36;21.58;;;14.90;;
63784;SDS011;49927;48.146;11.420;2022-08-06T04:13:03;24.08;;;14.80;;
63784;SDS011;49927;48.146;11.420;2022-08-06T04:15:30;26.80;;;16.05;;
63784;SDS011;49927;48.146;11.420;2022-08-06T04:17:57;22.67;;;15.02;;
63784;SDS011;49927;48.146;11.420;2022-08-06T04:20:24;24.08;;;15.65;;
63784;SDS011;49927;48.146;11.420;2022-08-06T04:22:50;26.23;;;16.13;;
63784;SDS011;49927;48.146;11.420;2022-08-06T04:25:15;24.98;;;16.83;;
63784;SDS011;49927;48.146;11.420;2022-08-06T04:27:41;26.67;;;16.88;;
63784;SDS011;49927;48.146;11.420;2022-08-06T04:30:08;24.27;;;15.25;;
63784;SDS011;49927;48.146;11.420;2022-08-06T04:32:34;22.88;;;14.65;;
63784;SDS011;49927;48.146;11.420;2022-08-06T04:35:03;24.48;;;14.68;;
63784;SDS011;49927;48.146;11.420;2022-08-06T04:37:29;24.00;;;14.82;;
63784;SDS011;49927;48.146;11.420;2022-08-06T04:39:55;23.00;;;14.45;;
63784;SDS011;49927;48.146;11.420;2022-08-06T04:42:21;22.55;;;14.07;;
63784;SDS011;49927;48.146;11.420;2022-08-06T04:44:47;21.60;;;13.73;;
63784;SDS011;49927;48.146;11.420;2022-08-06T04:47:13;28.83;;;14.75;;
63784;SDS011;49927;48.146;11.420;2022-08-06T04:49:39;19.48;;;13.63;;
63784;SDS011;49927;48.146;11.420;2022-08-06T04:52:06;24.50;;;13.65;;
63784;SDS011;49927;48.146;11.420;2022-08-06T04:54:31;23.35;;;14.68;;
63784;SDS011;49927;48.146;11.420;2022-08-06T04:56:57;23.73;;;14.82;;
63784;SDS011;49927;48.146;11.420;2022-08-06T04:59:22;19.30;;;14.25;;
63784;SDS011;49927;48.146;11.420;2022-08-06T05:01:48;19.92;;;14.27;;
63784;SDS011;49927;48.146;11.420;2022-08-06T05:04:13;21.92;;;14.35;;
63784;SDS011;49927;48.146;11.420;2022-08-06T05:06:44;19.45;;;14.23;;
63784;SDS011;49927;48.146;11.420;2022-08-06T05:09:15;24.75;;;14.80;;
63784;SDS011;49927;48.146;11.420;2022-08-06T05:11:43;21.27;;;14.48;;
63784;SDS011;49927;48.146;11.420;2022-08-06T05:14:13;20.77;;;14.07;;
63784;SDS011;49927;48.146;11.420;2022-08-06T05:16:39;20.80;;;13.70;;
63784;SDS011;49927;48.146;11.420;2022-08-06T05:19:09;18.42;;;12.82;;
63784;SDS011;49927;48.146;11.420;2022-08-06T05:21:37;19.58;;;12.18;;
63784;SDS011;49927;48.146;11.420;2022-08-06T05:24:03;18.15;;;12.75;;
63784;SDS011;49927;48.146;11.420;2022-08-06T05:26:30;15.75;;;11.93;;
63784;SDS011;49927;48.146;11.420;2022-08-06T05:28:58;16.70;;;12.57;;
63784;SDS011;49927;48.146;11.420;2022-08-06T05:31:30;20.45;;;12.45;;
63784;SDS011;49927;48.146;11.420;2022-08-06T05:33:56;15.88;;;11.23;;
63784;SDS011;49927;48.146;11.420;2022-08-06T05:36:21;18.70;;;12.70;;
63784;SDS011;49927;48.146;11.420;2022-08-06T05:38:47;15.55;;;11.63;;
63784;SDS011;49927;48.146;11.420;2022-08-06T05:41:12;16.50;;;11.77;;
63784;SDS011;49927;48.146;11.420;2022-08-06T05:43:39;16.48;;;10.77;;
63784;SDS011;49927;48.146;11.420;2022-08-06T05:46:07;14.32;;;11.27;;
63784;SDS011;49927;48.146;11.420;2022-08-06T05:48:35;14.65;;;12.43;;
63784;SDS011;49927;48.146;11.420;2022-08-06T05:51:05;15.77;;;12.60;;
63784;SDS011;49927;48.146;11.420;2022-08-06T05:53:34;16.55;;;13.52;;
63784;SDS011;49927;48.146;11.420;2022-08-06T05:56:04;15.15;;;12.80;;
63784;SDS011;49927;48.146;11.420;2022-08-06T05:58:33;18.30;;;14.02;;
63784;SDS011;49927;48.146;11.420;2022-08-06T06:01:04;17.98;;;14.82;;
63784;SDS011;49927;48.146;11.420;2022-08-06T06:03:30;22.00;;;17.33;;
63784;SDS011;49927;48.146;11.420;2022-08-06T06:05:58;22.77;;;17.88;;
63784;SDS011;49927;48.146;11.420;2022-08-06T06:08:24;21.92;;;15.00;;
63784;SDS011;49927;48.146;11.420;2022-08-06T06:10:50;24.42;;;14.73;;
63784;SDS011;49927;48.146;11.420;2022-08-06T06:13:16;16.80;;;14.05;;
63784;SDS011;49927;48.146;11.420;2022-08-06T06:15:42;22.15;;;16.02;;
63784;SDS011;49927;48.146;11.420;2022-08-06T06:18:18;19.52;;;15.80;;
63784;SDS011;49927;48.146;11.420;2022-08-06T06:20:51;22.05;;;15.48;;
63784;SDS011;49927;48.146;11.420;2022-08-06T06:23:20;22.40;;;16.40;;
63784;SDS011;49927;48.146;11.420;2022-08-06T06:25:52;21.42;;;16.50;;
63784;SDS011;49927;48.146;11.420;2022-08-06T06:28:24;18.77;;;14.10;;
63784;SDS011;49927;48.146;11.420;2022-08-06T06:30:54;20.65;;;15.25;;
63784;SDS011;49927;48.146;11.420;2022-08-06T06:33:25;15.48;;;12.52;;
63784;SDS011;49927;48.146;11.420;2022-08-06T06:35:54;14.13;;;10.65;;
63784;SDS011;49927;48.146;11.420;2022-08-06T06:38:25;11.88;;;10.68;;
63784;SDS011;49927;48.146;11.420;2022-08-06T06:40:58;12.40;;;10.43;;
63784;SDS011;49927;48.146;11.420;2022-08-06T06:43:29;15.82;;;10.55;;
63784;SDS011;49927;48.146;11.420;2022-08-06T06:46:00;11.55;;;9.40;;
63784;SDS011;49927;48.146;11.420;2022-08-06T06:48:30;18.10;;;11.27;;
63784;SDS011;49927;48.146;11.420;2022-08-06T06:51:03;16.98;;;12.55;;
63784;SDS011;49927;48.146;11.420;2022-08-06T06:53:34;16.60;;;13.05;;
63784;SDS011;49927;48.146;11.420;2022-08-06T06:56:02;18.65;;;12.70;;
63784;SDS011;49927;48.146;11.420;2022-08-06T06:58:30;16.58;;;12.00;;
63784;SDS011;49927;48.146;11.420;2022-08-06T07:00:58;15.13;;;12.00;;
63784;SDS011;49927;48.146;11.420;2022-08-06T07:03:24;15.27;;;11.60;;
63784;SDS011;49927;48.146;11.420;2022-08-06T07:05:52;18.30;;;12.45;;
63784;SDS011;49927;48.146;11.420;2022-08-06T07:08:19;17.92;;;12.07;;
63784;SDS011;49927;48.146;11.420;2022-08-06T07:10:45;17.33;;;13.02;;
63784;SDS011;49927;48.146;11.420;2022-08-06T07:13:11;21.05;;;13.82;;
63784;SDS011;49927;48.146;11.420;2022-08-06T07:15:37;17.80;;;13.02;;
63784;SDS011;49927;48.146;11.420;2022-08-06T07:18:03;20.42;;;14.63;;
63784;SDS011;49927;48.146;11.420;2022-08-06T07:23:11;18.67;;;14.25;;
63784;SDS011;49927;48.146;11.420;2022-08-06T07:25:39;15.98;;;13.25;;
63784;SDS011;49927;48.146;11.420;2022-08-06T07:28:06;20.85;;;13.80;;
63784;SDS011;49927;48.146;11.420;2022-08-06T07:30:32;18.40;;;15.00;;
63784;SDS011;49927;48.146;11.420;2022-08-06T07:32:58;17.48;;;14.02;;
63784;SDS011;49927;48.146;11.420;2022-08-06T07:35:24;22.73;;;15.45;;
63784;SDS011;49927;48.146;11.420;2022-08-06T07:37:51;21.65;;;15.60;;
63784;SDS011;49927;48.146;11.420;2022-08-06T07:40:22;23.17;;;16.48;;
63784;SDS011;49927;48.146;11.420;2022-08-06T07:42:50;23.92;;;16.88;;
63784;SDS011;49927;48.146;11.420;2022-08-06T07:45:19;22.98;;;17.15;;
63784;SDS011;49927;48.146;11.420;2022-08-06T07:47:45;21.92;;;17.23;;
63784;SDS011;49927;48.146;11.420;2022-08-06T07:50:12;21.40;;;17.02;;
63784;SDS011;49927;48.146;11.420;2022-08-06T07:52:38;22.08;;;16.70;;
63784;SDS011;49927;48.146;11.420;2022-08-06T07:55:05;21.30;;;16.13;;
63784;SDS011;49927;48.146;11.420;2022-08-06T07:57:33;21.35;;;15.98;;
63784;SDS011;49927;48.146;11.420;2022-08-06T07:59:58;21.02;;;17.17;;
63784;SDS011;49927;48.146;11.420;2022-08-06T08:02:24;23.92;;;17.70;;
63784;SDS011;49927;48.146;11.420;2022-08-06T08:04:50;23.27;;;17.60;;
63784;SDS011;49927;48.146;11.420;2022-08-06T08:07:17;25.45;;;19.23;;
63784;SDS011;49927;48.146;11.420;2022-08-06T08:09:43;22.58;;;17.88;;
63784;SDS011;49927;48.146;11.420;2022-08-06T08:12:10;27.13;;;19.90;;
63784;SDS011;49927;48.146;11.420;2022-08-06T08:14:38;25.95;;;19.85;;
63784;SDS011;49927;48.146;11.420;2022-08-06T08:17:04;34.50;;;23.35;;
63784;SDS011;49927;48.146;11.420;2022-08-06T08:19:30;31.02;;;20.42;;
63784;SDS011;49927;48.146;11.420;2022-08-06T08:21:57;31.77;;;22.45;;
63784;SDS011;49927;48.146;11.420;2022-08-06T08:24:24;29.15;;;21.00;;
63784;SDS011;49927;48.146;11.420;2022-08-06T08:26:50;32.38;;;22.20;;
63784;SDS011;49927;48.146;11.420;2022-08-06T08:29:15;34.45;;;24.45;;
63784;SDS011;49927;48.146;11.420;2022-08-06T08:31:42;33.00;;;24.05;;
63784;SDS011;49927;48.146;11.420;2022-08-06T08:34:08;31.08;;;24.02;;
63784;SDS011;49927;48.146;11.420;2022-08-06T08:36:33;34.00;;;23.75;;
63784;SDS011;49927;48.146;11.420;2022-08-06T08:38:59;39.25;;;24.77;;
63784;SDS011;49927;48.146;11.420;2022-08-06T08:41:25;36.20;;;24.13;;
63784;SDS011;49927;48.146;11.420;2022-08-06T08:43:52;34.10;;;23.30;;
63784;SDS011;49927;48.146;11.420;2022-08-06T08:46:21;32.83;;;24.85;;
63784;SDS011;49927;48.146;11.420;2022-08-06T08:48:48;32.45;;;23.17;;
63784;SDS011;49927;48.146;11.420;2022-08-06T08:51:14;31.38;;;23.65;;
63784;SDS011;49927;48.146;11.420;2022-08-06T08:53:42;30.38;;;23.00;;
63784;SDS011;49927;48.146;11.420;2022-08-06T08:56:10;33.38;;;24.13;;
63784;SDS011;49927;48.146;11.420;2022-08-06T08:58:36;34.42;;;24.50;;
63784;SDS011;49927;48.146;11.420;2022-08-06T09:01:04;35.38;;;25.58;;
63784;SDS011;49927;48.146;11.420;2022-08-06T09:03:32;35.72;;;25.55;;
63784;SDS011;49927;48.146;11.420;2022-08-06T09:05:59;35.50;;;24.95;;
63784;SDS011;49927;48.146;11.420;2022-08-06T09:08:25;35.83;;;24.80;;
63784;SDS011;49927;48.146;11.420;2022-08-06T09:10:51;33.70;;;24.75;;
63784;SDS011;49927;48.146;11.420;2022-08-06T09:13:16;35.38;;;25.73;;
63784;SDS011;49927;48.146;11.420;2022-08-06T09:15:42;38.42;;;26.75;;
63784;SDS011;49927;48.146;11.420;2022-08-06T09:18:07;39.78;;;27.50;;
63784;SDS011;49927;48.146;11.420;2022-08-06T09:20:33;35.03;;;25.23;;
63784;SDS011;49927;48.146;11.420;2022-08-06T09:23:01;35.25;;;27.75;;
63784;SDS011;49927;48.146;11.420;2022-08-06T09:25:36;33.00;;;26.38;;
63784;SDS011;49927;48.146;11.420;2022-08-06T09:28:03;38.75;;;27.88;;
63784;SDS011;49927;48.146;11.420;2022-08-06T09:30:29;37.38;;;27.38;;
63784;SDS011;49927;48.146;11.420;2022-08-06T09:32:54;39.97;;;27.25;;
63784;SDS011;49927;48.146;11.420;2022-08-06T09:35:22;37.35;;;26.85;;
63784;SDS011;49927;48.146;11.420;2022-08-06T09:37:48;33.85;;;25.70;;
63784;SDS011;49927;48.146;11.420;2022-08-06T09:40:17;30.50;;;23.52;;
63784;SDS011;49927;48.146;11.420;2022-08-06T09:42:44;31.40;;;22.90;;
63784;SDS011;49927;48.146;11.420;2022-08-06T09:45:11;30.63;;;23.52;;
63784;SDS011;49927;48.146;11.420;2022-08-06T09:47:37;33.53;;;24.98;;
63784;SDS011;49927;48.146;11.420;2022-08-06T09:50:03;34.92;;;26.25;;
63784;SDS011;49927;48.146;11.420;2022-08-06T09:52:29;33.88;;;25.05;;
63784;SDS011;49927;48.146;11.420;2022-08-06T09:54:55;33.45;;;24.88;;
63784;SDS011;49927;48.146;11.420;2022-08-06T09:57:25;37.58;;;26.35;;
63784;SDS011;49927;48.146;11.420;2022-08-06T09:59:52;34.35;;;25.50;;
63784;SDS011;49927;48.146;11.420;2022-08-06T10:02:18;33.15;;;25.58;;
63784;SDS011;49927;48.146;11.420;2022-08-06T10:04:45;30.50;;;23.98;;
63784;SDS011;49927;48.146;11.420;2022-08-06T10:07:11;31.83;;;24.75;;
63784;SDS011;49927;48.146;11.420;2022-08-06T10:09:36;32.58;;;24.45;;
63784;SDS011;49927;48.146;11.420;2022-08-06T10:12:18;25.17;;;20.02;;
63784;SDS011;49927;48.146;11.420;2022-08-06T10:14:46;26.10;;;21.60;;
63784;SDS011;49927;48.146;11.420;2022-08-06T10:17:12;26.90;;;20.98;;
63784;SDS011;49927;48.146;11.420;2022-08-06T10:19:40;26.83;;;21.92;;
63784;SDS011;49927;48.146;11.420;2022-08-06T10:22:07;23.92;;;19.38;;
63784;SDS011;49927;48.146;11.420;2022-08-06T10:24:35;21.42;;;17.65;;
63784;SDS011;49927;48.146;11.420;2022-08-06T10:27:05;23.08;;;17.75;;
63784;SDS011;49927;48.146;11.420;2022-08-06T10:29:30;21.40;;;16.52;;
63784;SDS011;49927;48.146;11.420;2022-08-06T10:31:58;21.70;;;17.23;;
63784;SDS011;49927;48.146;11.420;2022-08-06T10:34:24;26.58;;;18.65;;
63784;SDS011;49927;48.146;11.420;2022-08-06T10:36:53;19.83;;;16.70;;
63784;SDS011;49927;48.146;11.420;2022-08-06T10:39:20;17.23;;;14.80;;
63784;SDS011;49927;48.146;11.420;2022-08-06T10:41:47;23.15;;;15.80;;
63784;SDS011;49927;48.146;11.420;2022-08-06T10:44:13;16.80;;;14.02;;
63784;SDS011;49927;48.146;11.420;2022-08-06T10:46:39;17.02;;;14.57;;
63784;SDS011;49927;48.146;11.420;2022-08-06T10:49:06;16.52;;;14.70;;
63784;SDS011;49927;48.146;11.420;2022-08-06T10:51:32;21.35;;;15.95;;
63784;SDS011;49927;48.146;11.420;2022-08-06T10:53:58;18.30;;;15.30;;
63784;SDS011;49927;48.146;11.420;2022-08-06T10:56:24;19.35;;;15.70;;
63784;SDS011;49927;48.146;11.420;2022-08-06T10:58:50;20.63;;;16.45;;
63784;SDS011;49927;48.146;11.420;2022-08-06T11:01:18;17.05;;;13.68;;
63784;SDS011;49927;48.146;11.420;2022-08-06T11:03:51;16.92;;;14.23;;
63784;SDS011;49927;48.146;11.420;2022-08-06T11:06:30;15.57;;;13.90;;
63784;SDS011;49927;48.146;11.420;2022-08-06T11:09:05;14.82;;;12.23;;
63784;SDS011;49927;48.146;11.420;2022-08-06T11:11:43;18.33;;;13.05;;
63784;SDS011;49927;48.146;11.420;2022-08-06T11:14:14;14.07;;;12.57;;
63784;SDS011;49927;48.146;11.420;2022-08-06T11:16:39;15.30;;;11.73;;
63784;SDS011;49927;48.146;11.420;2022-08-06T11:19:19;13.60;;;12.05;;
63784;SDS011;49927;48.146;11.420;2022-08-06T11:22:07;14.90;;;12.07;;
63784;SDS011;49927;48.146;11.420;2022-08-06T11:24:35;16.17;;;12.57;;
63784;SDS011;49927;48.146;11.420;2022-08-06T11:30:13;16.92;;;13.82;;
63784;SDS011;49927;48.146;11.420;2022-08-06T11:32:42;19.35;;;14.10;;
63784;SDS011;49927;48.146;11.420;2022-08-06T11:38:11;20.55;;;14.20;;
63784;SDS011;49927;48.146;11.420;2022-08-06T11:40:52;16.00;;;14.30;;
63784;SDS011;49927;48.146;11.420;2022-08-06T11:46:22;21.58;;;18.25;;
63784;SDS011;49927;48.146;11.420;2022-08-06T11:51:36;22.83;;;17.80;;
63784;SDS011;49927;48.146;11.420;2022-08-06T11:54:08;20.27;;;17.30;;
63784;SDS011;49927;48.146;11.420;2022-08-06T11:56:35;25.45;;;17.17;;
63784;SDS011;49927;48.146;11.420;2022-08-06T11:59:12;21.77;;;17.95;;
63784;SDS011;49927;48.146;11.420;2022-08-06T12:01:45;21.88;;;17.55;;
63784;SDS011;49927;48.146;11.420;2022-08-06T12:04:16;21.92;;;18.83;;
63784;SDS011;49927;48.146;11.420;2022-08-06T12:07:14;20.38;;;17.83;;
63784;SDS011;49927;48.146;11.420;2022-08-06T12:09:42;20.27;;;18.13;;
63784;SDS011;49927;48.146;11.420;2022-08-06T12:15:03;18.67;;;15.88;;
63784;SDS011;49927;48.146;11.420;2022-08-06T12:17:30;16.33;;;14.32;;
63784;SDS011;49927;48.146;11.420;2022-08-06T12:19:56;20.73;;;17.02;;
63784;SDS011;49927;48.146;11.420;2022-08-06T12:22:23;17.08;;;15.25;;
63784;SDS011;49927;48.146;11.420;2022-08-06T12:24:50;18.88;;;15.43;;
63784;SDS011;49927;48.146;11.420;2022-08-06T12:27:17;16.30;;;14.02;;
63784;SDS011;49927;48.146;11.420;2022-08-06T12:29:43;18.23;;;14.35;;
63784;SDS011;49927;48.146;11.420;2022-08-06T12:32:18;17.55;;;14.48;;
63784;SDS011;49927;48.146;11.420;2022-08-06T12:34:44;16.85;;;13.82;;
63784;SDS011;49927;48.146;11.420;2022-08-06T12:37:10;14.52;;;13.02;;
63784;SDS011;49927;48.146;11.420;2022-08-06T12:39:38;17.50;;;14.30;;
63784;SDS011;49927;48.146;11.420;2022-08-06T12:42:11;15.10;;;13.60;;
63784;SDS011;49927;48.146;11.420;2022-08-06T12:44:46;17.42;;;15.02;;
63784;SDS011;49927;48.146;11.420;2022-08-06T12:47:12;15.93;;;13.95;;
63784;SDS011;49927;48.146;11.420;2022-08-06T12:49:37;15.68;;;13.77;;
63784;SDS011;49927;48.146;11.420;2022-08-06T12:52:10;17.10;;;14.52;;
63784;SDS011;49927;48.146;11.420;2022-08-06T12:54:36;17.33;;;14.02;;
63784;SDS011;49927;48.146;11.420;2022-08-06T12:57:02;16.30;;;13.77;;
63784;SDS011;49927;48.146;11.420;2022-08-06T12:59:29;15.43;;;13.82;;
63784;SDS011;49927;48.146;11.420;2022-08-06T13:01:54;16.08;;;13.18;;
63784;SDS011;49927;48.146;11.420;2022-08-06T13:04:21;13.88;;;12.43;;
63784;SDS011;49927;48.146;11.420;2022-08-06T13:06:53;15.55;;;13.45;;
63784;SDS011;49927;48.146;11.420;2022-08-06T13:09:27;15.63;;;12.80;;
63784;SDS011;49927;48.146;11.420;2022-08-06T13:11:53;14.73;;;12.82;;
63784;SDS011;49927;48.146;11.420;2022-08-06T13:14:18;12.98;;;11.60;;
63784;SDS011;49927;48.146;11.420;2022-08-06T13:16:46;14.55;;;12.80;;
63784;SDS011;49927;48.146;11.420;2022-08-06T13:19:13;13.60;;;11.82;;
63784;SDS011;49927;48.146;11.420;2022-08-06T13:21:39;16.38;;;13.18;;
63784;SDS011;49927;48.146;11.420;2022-08-06T13:24:05;14.65;;;13.05;;
63784;SDS011;49927;48.146;11.420;2022-08-06T13:26:32;12.85;;;11.52;;
63784;SDS011;49927;48.146;11.420;2022-08-06T13:29:03;13.95;;;12.30;;
63784;SDS011;49927;48.146;11.420;2022-08-06T13:31:29;11.50;;;10.32;;
63784;SDS011;49927;48.146;11.420;2022-08-06T13:33:59;13.25;;;11.35;;
63784;SDS011;49927;48.146;11.420;2022-08-06T13:36:26;12.15;;;10.10;;
63784;SDS011;49927;48.146;11.420;2022-08-06T13:38:51;10.85;;;9.02;;
63784;SDS011;49927;48.146;11.420;2022-08-06T13:41:23;11.25;;;9.40;;
63784;SDS011;49927;48.146;11.420;2022-08-06T13:43:49;11.40;;;9.07;;
63784;SDS011;49927;48.146;11.420;2022-08-06T13:46:15;12.20;;;10.82;;
63784;SDS011;49927;48.146;11.420;2022-08-06T13:48:42;12.63;;;10.85;;
63784;SDS011;49927;48.146;11.420;2022-08-06T13:51:10;11.95;;;10.77;;
63784;SDS011;49927;48.146;11.420;2022-08-06T13:53:36;14.90;;;10.18;;
63784;SDS011;49927;48.146;11.420;2022-08-06T13:56:02;12.35;;;10.73;;
63784;SDS011;49927;48.146;11.420;2022-08-06T13:58:28;10.45;;;9.35;;
63784;SDS011;49927;48.146;11.420;2022-08-06T14:00:53;11.38;;;9.70;;
63784;SDS011;49927;48.146;11.420;2022-08-06T14:03:19;12.10;;;9.30;;
63784;SDS011;49927;48.146;11.420;2022-08-06T14:05:44;11.13;;;9.07;;
63784;SDS011;49927;48.146;11.420;2022-08-06T14:08:11;11.60;;;8.50;;
63784;SDS011;49927;48.146;11.420;2022-08-06T14:10:37;11.27;;;8.68;;
63784;SDS011;49927;48.146;11.420;2022-08-06T14:13:02;10.05;;;8.98;;
63784;SDS011;49927;48.146;11.420;2022-08-06T14:15:28;10.80;;;9.75;;
63784;SDS011;49927;48.146;11.420;2022-08-06T14:17:53;9.40;;;7.85;;
63784;SDS011;49927;48.146;11.420;2022-08-06T14:20:19;11.13;;;8.88;;
63784;SDS011;49927;48.146;11.420;2022-08-06T14:22:44;9.07;;;8.02;;
63784;SDS011;49927;48.146;11.420;2022-08-06T14:25:11;11.13;;;8.80;;
63784;SDS011;49927;48.146;11.420;2022-08-06T14:27:37;9.32;;;7.93;;
63784;SDS011;49927;48.146;11.420;2022-08-06T14:30:02;9.18;;;8.20;;
63784;SDS011;49927;48.146;11.420;2022-08-06T14:32:28;7.43;;;6.53;;
63784;SDS011;49927;48.146;11.420;2022-08-06T14:34:54;9.23;;;7.05;;
63784;SDS011;49927;48.146;11.420;2022-08-06T14:37:19;9.10;;;7.63;;